Terminal Aerodrome Forecast
Issued by NWS Twin Cities, MN

Home | Current Version | Previous Version | Graphics & Text | Print | Product List | Glossary On
Versions: 1 2 3 4 5 6 7 8 9 10 11 12 13 14 15 16 17 18 19 20 21 22 23 24 25 26 27 28
119
FTUS43 KMPX 271730
TAFMSP
TAF
KMSP 271730Z 2718/2824 31014G23KT P6SM VCSH SCT020 BKN035
      TEMPO 2719/2722 -SHRA BKN030
     FM272200 32012KT P6SM -SHRA SCT025 OVC035
     FM280200 34008KT P6SM SCT020 BKN030
     FM281600 36009KT P6SM SCT025 BKN035=

USA.gov is the U.S. government's official web portal to all federal, state and local government web resources and services.